Sao Joao do Jaguaribe, Brazil
Current Conditions -  °F | °C
As of 12:00 AM on Monday 24 Nov 2014 (Local Time) from SBFZ Reporting Station
Few Clouds Few Clouds  
Wind Chill: 79°   Ceiling: Unl
Heat Index: 81°   Visibility: 6mi
Dew Point: 70°   Wind: 9mph
Humidity: 74%   Direction: 90°E
Pressure: 29.91"   Gusts: NA
Location:  5.27°S, 38.27°W
Report Text: SBFZ 240300Z 09008KT 9999 FEW018 26/21 Q1013
Loading
Personal Weather Stations






























Interactive Weather Map New forecast layout! Learn more

10-Day Weather Forecast

Advertisements
Track Severe Weather on mobile